Time;durP1;ratioP1;P1;durP2;ratioP2;P2;SDS_P1;SDS_P2;PMS_P1;PMS_P2;Temp;Humidity;BMP_temperature;BMP_pressure;BME280_temperature;BME280_humidity;BME280_pressure;Samples;Min_cycle;Max_cycle;Signal;HPM_P1;HPM_P2
2022/06/18 00:00:58;;;;;;;;;;;;;;;14.81;75.30;99101.56;4208363;28;19916;-71
2022/06/18 00:02:58;;;;;;;;;;;;;;;14.77;73.68;99095.19;4209590;28;20332;-71
2022/06/18 00:04:58;;;;;;;;;;;;;;;14.74;74.08;99094.00;4212984;28;19973;-71
2022/06/18 00:07:02;;;;;;;;;;;;;;;14.73;72.96;99097.97;4212453;28;19924;-71
2022/06/18 00:09:03;;;;;;;;;;;;;;;14.71;72.87;99088.41;4207443;28;20158;-71
2022/06/18 00:13:41;;;;;;;;;;;;;;;14.73;73.63;99086.00;4212463;28;20278;-71
2022/06/18 00:15:42;;;;;;;;;;;;;;;14.60;75.54;99089.16;4216284;28;19927;-71
2022/06/18 00:17:43;;;;;;;;;;;;;;;14.56;75.04;99085.56;4212489;28;19927;-71
2022/06/18 00:19:46;;;;;;;;;;;;;;;14.51;75.17;99077.56;4211835;28;19924;-71
2022/06/18 00:21:47;;;;;;;;;;;;;;;14.50;74.31;99069.59;4212580;28;19967;-71
2022/06/18 00:23:47;;;;;;;;;;;;;;;14.46;74.38;99075.13;4213629;28;20375;-71
2022/06/18 00:25:48;;;;;;;;;;;;;;;14.44;74.35;99071.94;4212541;28;20352;-71
2022/06/18 00:27:49;;;;;;;;;;;;;;;14.43;74.29;99070.34;4212140;28;20422;-71
2022/06/18 00:29:50;;;;;;;;;;;;;;;14.40;74.70;99071.13;4212850;28;19958;-71
2022/06/18 00:31:50;;;;;;;;;;;;;;;14.39;74.12;99071.50;4215264;28;20271;-71
2022/06/18 00:33:50;;;;;;;;;;;;;;;14.36;74.52;99070.28;4210551;28;20056;-71
2022/06/18 00:35:52;;;;;;;;;;;;;;;14.36;74.37;99070.28;4211345;27;20010;-71
2022/06/18 00:37:56;;;;;;;;;;;;;;;14.34;74.55;99073.47;4217734;28;20178;-71
2022/06/18 00:39:57;;;;;;;;;;;;;;;14.29;75.21;99070.25;4213282;28;19919;-71
2022/06/18 00:42:01;;;;;;;;;;;;;;;14.28;74.45;99068.66;4214624;28;20186;-71
2022/06/18 00:44:05;;;;;;;;;;;;;;;14.29;73.46;99061.91;4213260;28;19963;-71
2022/06/18 00:46:11;;;;;;;;;;;;;;;14.24;75.59;99060.28;4214960;28;20294;-71
2022/06/18 00:48:16;;;;;;;;;;;;;;;14.18;75.29;99066.59;4206591;28;19967;-71
2022/06/18 00:50:33;;;;;;;;;;;;;;;14.13;75.28;99064.19;4215295;28;19923;-71
2022/06/18 00:52:38;;;;;;;;;;;;;;;14.16;75.62;99057.84;4208582;28;19916;-71
2022/06/18 00:54:42;;;;;;;;;;;;;;;14.15;74.87;99057.06;4209629;28;19916;-71
2022/06/18 00:57:04;;;;;;;;;;;;;;;14.15;74.03;99059.00;4213749;28;20006;-71
2022/06/18 00:59:09;;;;;;;;;;;;;;;14.12;74.11;99059.81;4211800;28;20252;-70
2022/06/18 01:01:12;;;;;;;;;;;;;;;14.13;73.51;99053.03;4208404;28;20315;-70
2022/06/18 01:03:28;;;;;;;;;;;;;;;14.05;75.10;99046.63;4211260;28;19916;-70
2022/06/18 01:05:36;;;;;;;;;;;;;;;14.02;73.77;99045.44;4213152;28;19920;-70
2022/06/18 01:07:37;;;;;;;;;;;;;;;14.00;74.74;99052.59;4212992;28;19983;-70
2022/06/18 01:09:37;;;;;;;;;;;;;;;13.98;75.50;99050.19;4207260;28;19957;-70
2022/06/18 01:11:39;;;;;;;;;;;;;;;13.93;75.75;99044.19;4215340;28;20657;-70
2022/06/18 01:13:40;;;;;;;;;;;;;;;13.93;75.26;99047.75;4213216;28;20112;-70
2022/06/18 01:15:41;;;;;;;;;;;;;;;13.97;73.79;99048.56;4207177;28;20049;-71
2022/06/18 01:17:42;;;;;;;;;;;;;;;13.94;75.66;99041.00;4213530;28;19916;-71
2022/06/18 01:19:43;;;;;;;;;;;;;;;13.92;75.18;99043.38;4212384;28;19970;-71
2022/06/18 01:21:44;;;;;;;;;;;;;;;13.93;73.95;99033.06;4214290;28;19916;-71
2022/06/18 01:23:49;;;;;;;;;;;;;;;13.90;74.51;99039.38;4211106;28;20448;-71
2022/06/18 01:25:51;;;;;;;;;;;;;;;13.87;74.21;99035.38;4213500;28;19916;-71
2022/06/18 01:27:52;;;;;;;;;;;;;;;13.81;75.74;99030.56;4213311;28;19970;-70
2022/06/18 01:29:53;;;;;;;;;;;;;;;13.82;74.33;99026.59;4216564;28;20002;-70
2022/06/18 01:31:54;;;;;;;;;;;;;;;13.79;75.07;99030.97;4208465;28;19920;-70
2022/06/18 01:33:55;;;;;;;;;;;;;;;13.74;75.48;99025.78;4206711;28;19923;-70
2022/06/18 01:35:55;;;;;;;;;;;;;;;13.72;75.55;99019.78;4215412;28;19920;-70
2022/06/18 01:37:56;;;;;;;;;;;;;;;13.72;75.39;99017.78;4209325;28;20267;-70
2022/06/18 01:39:57;;;;;;;;;;;;;;;13.71;75.68;99021.75;4210660;28;19968;-70
2022/06/18 01:42:03;;;;;;;;;;;;;;;13.67;76.17;99012.63;4208760;28;20308;-70
2022/06/18 01:44:17;;;;;;;;;;;;;;;13.65;76.18;99017.78;4214765;28;19954;-70
2022/06/18 01:46:17;;;;;;;;;;;;;;;13.64;76.02;99013.38;4211593;28;19916;-70
2022/06/18 01:48:30;;;;;;;;;;;;;;;13.66;75.52;99016.56;4211427;28;20193;-71
2022/06/18 01:50:32;;;;;;;;;;;;;;;13.65;75.88;99017.78;4211566;28;19931;-70
2022/06/18 01:52:36;;;;;;;;;;;;;;;13.62;75.55;99010.19;4215953;28;20046;-70
2022/06/18 01:54:44;;;;;;;;;;;;;;;13.62;75.78;99003.81;4208724;28;19947;-70
2022/06/18 01:56:46;;;;;;;;;;;;;;;13.62;75.54;99003.81;4214763;28;20224;-70
2022/06/18 01:58:59;;;;;;;;;;;;;;;13.58;76.24;99009.38;4211308;28;19927;-70
2022/06/18 02:01:01;;;;;;;;;;;;;;;13.55;76.24;99004.56;4208404;28;19916;-71
2022/06/18 02:03:02;;;;;;;;;;;;;;;13.53;76.09;99001.38;4213653;28;20302;-71
2022/06/18 02:05:02;;;;;;;;;;;;;;;13.51;76.63;98995.41;4219903;28;20026;-71
2022/06/18 02:07:04;;;;;;;;;;;;;;;13.49;75.65;98987.44;4207044;28;19935;-70
2022/06/18 02:09:08;;;;;;;;;;;;;;;13.46;78.46;98984.63;4209453;28;19973;-70
2022/06/18 02:11:10;;;;;;;;;;;;;;;13.43;76.98;98986.22;4215024;28;19985;-70
2022/06/18 02:13:12;;;;;;;;;;;;;;;13.37;77.56;98981.38;4218123;28;19920;-70
2022/06/18 02:15:19;;;;;;;;;;;;;;;13.33;78.40;98980.56;4211358;28;20421;-70
2022/06/18 02:17:21;;;;;;;;;;;;;;;13.29;77.82;98980.53;4216706;28;19923;-70
2022/06/18 02:19:21;;;;;;;;;;;;;;;13.24;78.90;98980.91;4213419;28;20261;-70
2022/06/18 02:21:23;;;;;;;;;;;;;;;13.18;80.05;98979.59;4211673;28;19939;-70
2022/06/18 02:23:24;;;;;;;;;;;;;;;13.15;79.67;98972.03;4215893;28;20382;-70
2022/06/18 02:25:26;;;;;;;;;;;;;;;13.10;79.56;98972.41;4215960;28;19916;-70
2022/06/18 02:27:26;;;;;;;;;;;;;;;13.13;77.17;98969.63;4215796;28;19943;-70
2022/06/18 02:29:29;;;;;;;;;;;;;;;13.14;78.51;98973.22;4213141;28;20165;-70
2022/06/18 02:31:31;;;;;;;;;;;;;;;13.10;79.31;98967.63;4214453;28;19926;-70
2022/06/18 02:33:36;;;;;;;;;;;;;;;13.02;79.29;98965.97;4215491;28;19919;-71
2022/06/18 02:35:36;;;;;;;;;;;;;;;13.03;77.91;98966.75;4212811;28;19920;-70
2022/06/18 02:37:37;;;;;;;;;;;;;;;13.03;78.32;98961.22;4219956;27;19923;-70
2022/06/18 02:39:39;;;;;;;;;;;;;;;13.07;77.20;98957.25;4212883;28;19979;-70
2022/06/18 02:41:40;;;;;;;;;;;;;;;13.04;77.70;98952.50;4219893;28;20308;-70
2022/06/18 02:43:43;;;;;;;;;;;;;;;13.02;78.02;98954.84;4215854;28;20562;-71
2022/06/18 02:45:44;;;;;;;;;;;;;;;13.01;77.68;98958.03;4216483;28;19919;-70
2022/06/18 02:47:45;;;;;;;;;;;;;;;13.03;77.19;98959.22;4213850;28;19919;-70
2022/06/18 02:49:57;;;;;;;;;;;;;;;13.06;77.27;98960.44;4212864;28;19924;-70
2022/06/18 02:51:58;;;;;;;;;;;;;;;13.06;76.94;98955.66;4215192;28;20040;-71
2022/06/18 02:53:58;;;;;;;;;;;;;;;13.01;78.51;98963.56;4215642;28;20340;-71
2022/06/18 02:56:03;;;;;;;;;;;;;;;12.99;77.32;98954.81;4209794;28;19966;-71
2022/06/18 02:58:17;;;;;;;;;;;;;;;12.96;78.06;98961.13;4211837;28;19923;-70
2022/06/18 03:00:17;;;;;;;;;;;;;;;12.91;78.14;98965.06;4210157;28;19923;-70
2022/06/18 03:02:17;;;;;;;;;;;;;;;12.87;79.00;98965.03;4216490;28;19916;-70
2022/06/18 03:04:17;;;;;;;;;;;;;;;12.85;79.48;98956.28;4219052;28;20312;-70
2022/06/18 03:06:19;;;;;;;;;;;;;;;12.81;80.28;98962.97;4215655;28;19923;-70
2022/06/18 03:08:20;;;;;;;;;;;;;;;12.81;80.14;98965.75;4214737;28;20015;-70
2022/06/18 03:12:39;;;;;;;;;;;;;;;12.77;81.13;98962.16;4212144;28;20225;-70
2022/06/18 03:14:40;;;;;;;;;;;;;;;12.79;79.92;98959.78;4213234;28;20283;-70
2022/06/18 03:16:40;;;;;;;;;;;;;;;12.79;80.17;98951.44;4210438;28;19935;-71
2022/06/18 03:18:42;;;;;;;;;;;;;;;12.81;81.05;98954.63;4217911;28;19920;-70
2022/06/18 03:20:54;;;;;;;;;;;;;;;12.85;79.99;98950.72;4214651;28;19915;-70
2022/06/18 03:22:55;;;;;;;;;;;;;;;12.87;79.65;98950.34;4216897;28;20386;-70
2022/06/18 03:24:55;;;;;;;;;;;;;;;12.90;77.79;98941.25;4215560;28;19994;-70
2022/06/18 03:26:55;;;;;;;;;;;;;;;12.89;77.99;98943.22;4215841;28;19920;-70
2022/06/18 03:28:55;;;;;;;;;;;;;;;12.92;78.34;98950.00;4208321;28;20005;-70
2022/06/18 03:30:56;;;;;;;;;;;;;;;12.89;79.30;98946.00;4213924;28;19923;-70
2022/06/18 03:32:56;;;;;;;;;;;;;;;12.90;78.31;98944.81;4210784;28;20191;-70
2022/06/18 03:34:56;;;;;;;;;;;;;;;12.89;79.90;98946.00;4214555;28;20010;-70
2022/06/18 03:36:56;;;;;;;;;;;;;;;12.89;79.63;98940.44;4215446;28;19974;-70
2022/06/18 03:38:57;;;;;;;;;;;;;;;12.93;78.50;98940.50;4194412;28;19923;-70
2022/06/18 03:40:57;;;;;;;;;;;;;;;12.98;77.40;98940.13;4213695;28;20006;-70
2022/06/18 03:42:57;;;;;;;;;;;;;;;13.00;77.87;98950.88;4213402;28;19916;-70
2022/06/18 03:44:58;;;;;;;;;;;;;;;12.99;79.24;98943.69;4213839;28;20326;-71
2022/06/18 03:46:59;;;;;;;;;;;;;;;13.00;80.60;98942.53;4216461;28;20325;-71
2022/06/18 03:49:01;;;;;;;;;;;;;;;13.03;79.39;98939.00;4213922;28;19916;-70
2022/06/18 03:51:01;;;;;;;;;;;;;;;13.05;79.18;98936.63;4212911;28;20075;-70
2022/06/18 03:53:02;;;;;;;;;;;;;;;13.10;78.30;98936.28;4208708;28;20423;-70
2022/06/18 03:55:02;;;;;;;;;;;;;;;13.13;78.07;98932.72;4215110;28;19920;-70
2022/06/18 03:57:03;;;;;;;;;;;;;;;13.21;77.18;98931.63;4211866;28;19981;-70
2022/06/18 03:59:03;;;;;;;;;;;;;;;13.26;76.94;98931.28;4212160;28;20393;-70
2022/06/18 04:01:03;;;;;;;;;;;;;;;13.31;77.05;98930.91;4213175;28;19926;-70
2022/06/18 04:03:03;;;;;;;;;;;;;;;13.35;77.03;98933.72;4212927;28;20371;-70
2022/06/18 04:05:04;;;;;;;;;;;;;;;13.41;77.28;98933.00;4218143;28;20329;-70
2022/06/18 04:07:05;;;;;;;;;;;;;;;13.45;77.15;98928.25;4212884;28;19951;-70
2022/06/18 04:09:06;;;;;;;;;;;;;;;13.52;77.06;98927.50;4211956;28;20160;-70
2022/06/18 04:11:06;;;;;;;;;;;;;;;13.57;76.57;98932.72;4210790;28;19927;-70
2022/06/18 04:13:07;;;;;;;;;;;;;;;13.63;76.28;98925.56;4209473;28;20035;-70
2022/06/18 04:15:07;;;;;;;;;;;;;;;13.71;76.06;98924.44;4214422;28;20350;-70
2022/06/18 04:17:11;;;;;;;;;;;;;;;13.77;76.05;98922.91;4219936;28;20010;-70
2022/06/18 04:19:11;;;;;;;;;;;;;;;13.85;75.86;98917.38;4209958;28;19915;-70
2022/06/18 04:21:12;;;;;;;;;;;;;;;13.93;75.83;98927.34;4211512;28;20427;-70
2022/06/18 04:23:15;;;;;;;;;;;;;;;14.02;75.57;98928.59;4208447;28;20344;-70
2022/06/18 04:25:15;;;;;;;;;;;;;;;14.13;74.54;98928.63;4212019;28;20387;-70
2022/06/18 04:27:15;;;;;;;;;;;;;;;14.26;73.86;98926.31;4212221;28;20413;-70
2022/06/18 04:29:16;;;;;;;;;;;;;;;14.37;73.46;98932.69;4211715;28;20091;-70
2022/06/18 04:31:16;;;;;;;;;;;;;;;14.50;73.62;98933.19;4216934;28;19974;-70
2022/06/18 04:33:16;;;;;;;;;;;;;;;14.63;72.68;98930.81;4211466;28;19916;-70
2022/06/18 04:35:17;;;;;;;;;;;;;;;14.76;73.39;98926.47;4215438;28;20031;-70
2022/06/18 04:37:17;;;;;;;;;;;;;;;14.92;73.07;98931.69;4210762;28;20348;-70
2022/06/18 04:39:17;;;;;;;;;;;;;;;15.08;72.76;98932.88;4210833;28;19924;-70
2022/06/18 04:41:17;;;;;;;;;;;;;;;15.26;72.31;98927.31;4150745;28;19924;-70
2022/06/18 04:43:18;;;;;;;;;;;;;;;15.42;72.25;98924.13;4208946;28;20514;-70
2022/06/18 04:45:20;;;;;;;;;;;;;;;15.58;71.86;98927.28;4210705;28;20296;-70
2022/06/18 04:47:20;;;;;;;;;;;;;;;15.75;70.53;98922.91;4205077;28;20083;-70
2022/06/18 04:49:20;;;;;;;;;;;;;;;15.96;69.90;98925.63;4193477;28;19921;-70
2022/06/18 04:51:20;;;;;;;;;;;;;;;16.15;67.96;98923.59;4212694;28;19927;-70
2022/06/18 04:53:20;;;;;;;;;;;;;;;16.29;67.91;98929.09;4205571;28;19916;-71
2022/06/18 04:55:21;;;;;;;;;;;;;;;16.44;67.78;98929.84;4212063;28;19958;-71
2022/06/18 04:57:21;;;;;;;;;;;;;;;16.60;67.51;98926.56;4213838;28;19919;-71
2022/06/18 04:59:22;;;;;;;;;;;;;;;16.74;66.44;98924.53;4207497;28;19989;-71
2022/06/18 05:01:27;;;;;;;;;;;;;;;16.90;66.17;98926.03;4212779;28;19946;-70
2022/06/18 05:03:27;;;;;;;;;;;;;;;17.05;65.59;98917.13;4211994;28;19942;-70
2022/06/18 05:05:27;;;;;;;;;;;;;;;17.24;65.68;98918.56;4215927;28;20027;-70
2022/06/18 05:07:28;;;;;;;;;;;;;;;17.41;65.08;98923.22;4215626;28;19919;-71
2022/06/18 05:09:28;;;;;;;;;;;;;;;17.54;64.83;98922.69;4213916;28;20322;-71
2022/06/18 05:11:30;;;;;;;;;;;;;;;17.75;64.40;98924.53;4215056;28;20425;-70
2022/06/18 05:13:30;;;;;;;;;;;;;;;17.93;63.35;98920.31;4210030;28;19964;-71
2022/06/18 05:15:30;;;;;;;;;;;;;;;18.05;63.51;98921.00;4211551;28;19924;-71
2022/06/18 05:17:31;;;;;;;;;;;;;;;18.16;63.40;98921.69;4216829;28;19924;-71
2022/06/18 05:19:33;;;;;;;;;;;;;;;18.27;62.86;98918.75;4212496;28;20148;-71
2022/06/18 05:21:33;;;;;;;;;;;;;;;18.39;62.66;98921.00;4210676;28;20316;-70
2022/06/18 05:23:33;;;;;;;;;;;;;;;18.50;62.12;98921.63;4209666;28;20082;-70
2022/06/18 05:25:33;;;;;;;;;;;;;;;18.62;61.86;98928.69;4216032;28;19916;-70
2022/06/18 05:27:35;;;;;;;;;;;;;;;18.71;62.53;98927.00;4211429;28;20345;-71
2022/06/18 05:29:35;;;;;;;;;;;;;;;18.79;62.44;98928.47;4215646;28;19931;-71
2022/06/18 05:31:36;;;;;;;;;;;;;;;18.87;62.47;98928.38;4211192;28;19951;-71
2022/06/18 05:33:36;;;;;;;;;;;;;;;18.98;61.93;98927.00;4205925;28;19954;-71
2022/06/18 05:35:38;;;;;;;;;;;;;;;19.11;60.36;98923.59;4206086;28;20359;-71
2022/06/18 05:37:39;;;;;;;;;;;;;;;19.24;60.28;98928.19;4212471;28;19916;-71
2022/06/18 05:39:39;;;;;;;;;;;;;;;19.41;58.01;98923.50;4216670;28;19920;-71
2022/06/18 05:41:39;;;;;;;;;;;;;;;19.56;56.66;98924.06;4210769;28;19978;-71
2022/06/18 05:43:40;;;;;;;;;;;;;;;19.76;55.70;98918.50;4217146;28;20604;-71
2022/06/18 05:45:41;;;;;;;;;;;;;;;20.02;55.15;98916.78;4203307;28;19959;-71
2022/06/18 05:47:41;;;;;;;;;;;;;;;20.19;54.73;98908.03;4212933;28;19926;-71
2022/06/18 05:49:41;;;;;;;;;;;;;;;20.42;53.28;98912.75;4207559;28;19945;-71
2022/06/18 05:51:41;;;;;;;;;;;;;;;20.59;52.64;98908.00;4205819;28;19922;-71
2022/06/18 05:53:42;;;;;;;;;;;;;;;20.73;52.21;98904.09;4213711;28;19916;-70
2022/06/18 05:55:42;;;;;;;;;;;;;;;20.84;50.57;98901.81;4209749;28;20118;-71
2022/06/18 05:57:46;;;;;;;;;;;;;;;21.03;49.45;98894.56;4211479;28;20217;-70
2022/06/18 05:59:47;;;;;;;;;;;;;;;21.13;49.49;98895.53;4208682;28;19920;-70
2022/06/18 06:01:48;;;;;;;;;;;;;;;21.27;48.51;98896.00;4212112;28;19977;-70
2022/06/18 06:03:48;;;;;;;;;;;;;;;21.41;46.40;98896.84;4211561;28;19923;-70
2022/06/18 06:05:48;;;;;;;;;;;;;;;21.70;45.50;98894.09;4205925;28;20252;-70
2022/06/18 06:07:49;;;;;;;;;;;;;;;21.82;46.41;98887.72;4206451;28;19919;-70
2022/06/18 06:12:10;;;;;;;;;;;;;;;22.34;43.45;98884.66;4209270;28;19962;-70
2022/06/18 06:14:10;;;;;;;;;;;;;;;22.47;44.21;98883.88;4204526;28;19920;-70
2022/06/18 06:16:11;;;;;;;;;;;;;;;22.56;44.12;98889.66;4205541;28;20927;-70
2022/06/18 06:18:12;;;;;;;;;;;;;;;22.73;43.24;98884.72;4211665;28;19977;-70
2022/06/18 06:20:18;;;;;;;;;;;;;;;22.79;41.88;98880.88;4215210;28;20497;-70
2022/06/18 06:22:18;;;;;;;;;;;;;;;22.89;41.51;98887.44;4214343;28;19920;-70
2022/06/18 06:24:19;;;;;;;;;;;;;;;23.05;40.93;98883.72;4210638;28;19923;-70
2022/06/18 06:26:21;;;;;;;;;;;;;;;23.27;40.21;98879.75;4209897;28;19922;-70
2022/06/18 06:28:23;;;;;;;;;;;;;;;23.38;40.37;98872.94;4214345;28;19966;-70
2022/06/18 06:30:24;;;;;;;;;;;;;;;23.47;40.18;98881.50;4210400;28;20022;-71
2022/06/18 06:32:24;;;;;;;;;;;;;;;23.56;42.17;98873.09;4211056;28;20275;-70
2022/06/18 06:34:24;;;;;;;;;;;;;;;23.62;42.00;98870.53;4208537;28;19923;-70
2022/06/18 06:36:25;;;;;;;;;;;;;;;23.59;40.83;98875.03;4208607;28;19920;-70
2022/06/18 06:38:25;;;;;;;;;;;;;;;23.68;40.91;98863.84;4211550;28;19912;-70
2022/06/18 06:40:25;;;;;;;;;;;;;;;23.67;39.68;98869.97;4209374;28;20325;-70
2022/06/18 06:42:26;;;;;;;;;;;;;;;23.62;40.08;98856.41;4212321;28;20324;-70
2022/06/18 06:44:26;;;;;;;;;;;;;;;23.82;38.73;98859.72;4213152;28;19919;-70
2022/06/18 06:46:26;;;;;;;;;;;;;;;23.91;39.35;98859.00;4212616;28;19920;-70
2022/06/18 06:48:26;;;;;;;;;;;;;;;24.05;38.35;98856.44;4210352;28;19972;-70
2022/06/18 06:50:28;;;;;;;;;;;;;;;24.34;37.96;98853.38;4212182;28;19912;-70
2022/06/18 06:52:28;;;;;;;;;;;;;;;24.44;41.05;98856.25;4217714;28;20263;-70
2022/06/18 06:54:28;;;;;;;;;;;;;;;24.51;38.63;98853.94;4206293;28;19952;-70
2022/06/18 06:58:47;;;;;;;;;;;;;;;24.55;38.70;98851.72;4213557;28;20386;-70
2022/06/18 07:00:49;;;;;;;;;;;;;;;24.55;37.55;98851.72;4214461;28;20017;-71
2022/06/18 07:02:49;;;;;;;;;;;;;;;24.58;38.13;98856.47;4217758;28;20002;-71
2022/06/18 07:04:49;;;;;;;;;;;;;;;24.69;37.29;98853.22;4213965;28;20656;-70
2022/06/18 07:06:49;;;;;;;;;;;;;;;24.80;37.50;98842.25;4213257;28;20249;-70
2022/06/18 07:08:50;;;;;;;;;;;;;;;24.86;37.58;98846.06;4206251;28;19920;-71
2022/06/18 07:10:50;;;;;;;;;;;;;;;24.96;37.38;98844.03;4214404;28;19916;-71
2022/06/18 07:12:51;;;;;;;;;;;;;;;25.03;38.41;98843.78;4210247;28;19924;-71
2022/06/18 07:14:51;;;;;;;;;;;;;;;25.02;37.79;98835.72;4213434;28;19920;-71
2022/06/18 07:16:52;;;;;;;;;;;;;;;25.10;38.60;98849.16;4212148;28;19916;-71
2022/06/18 07:18:53;;;;;;;;;;;;;;;25.17;37.15;98839.59;4212736;28;20514;-71
2022/06/18 07:20:53;;;;;;;;;;;;;;;25.17;37.69;98833.91;4218938;28;20301;-71
2022/06/18 07:22:56;;;;;;;;;;;;;;;25.30;37.39;98845.88;4219125;28;20099;-71
2022/06/18 07:24:56;;;;;;;;;;;;;;;25.44;37.28;98836.78;4214303;28;19913;-71
2022/06/18 07:26:56;;;;;;;;;;;;;;;25.51;36.11;98835.69;4215332;28;19919;-71
2022/06/18 07:28:56;;;;;;;;;;;;;;;25.47;36.80;98837.88;4208547;28;20283;-71
2022/06/18 07:30:56;;;;;;;;;;;;;;;25.49;36.57;98829.72;4218304;28;20367;-71
2022/06/18 07:32:57;;;;;;;;;;;;;;;25.58;36.55;98821.22;4213093;28;19920;-71
2022/06/18 07:34:57;;;;;;;;;;;;;;;25.64;36.16;98824.19;4208663;28;19915;-71
2022/06/18 07:36:57;;;;;;;;;;;;;;;25.80;36.43;98826.75;4210198;27;20148;-71
2022/06/18 07:38:58;;;;;;;;;;;;;;;25.88;36.25;98828.00;4213648;28;20395;-71
2022/06/18 07:40:58;;;;;;;;;;;;;;;25.93;35.97;98816.03;4217086;28;19916;-71
2022/06/18 07:42:59;;;;;;;;;;;;;;;26.01;36.36;98819.34;4209069;28;19924;-71
2022/06/18 07:44:59;;;;;;;;;;;;;;;26.15;36.08;98806.53;4214681;28;19919;-71
2022/06/18 07:47:03;;;;;;;;;;;;;;;26.17;36.88;98810.47;4221640;28;19961;-71
2022/06/18 07:49:05;;;;;;;;;;;;;;;26.24;36.64;98815.03;4207511;28;19920;-71
2022/06/18 07:51:06;;;;;;;;;;;;;;;26.35;35.46;98806.03;4214269;28;20454;-71
2022/06/18 07:53:06;;;;;;;;;;;;;;;26.47;35.82;98820.03;4212728;28;19919;-71
2022/06/18 07:55:07;;;;;;;;;;;;;;;26.62;36.39;98817.28;4211769;28;19915;-71
2022/06/18 07:57:07;;;;;;;;;;;;;;;26.75;35.02;98817.88;4209091;28;19916;-71
2022/06/18 07:59:07;;;;;;;;;;;;;;;26.83;35.23;98804.91;4213928;28;19922;-71
2022/06/18 08:01:08;;;;;;;;;;;;;;;26.88;35.56;98804.22;4215120;28;20430;-71
2022/06/18 08:03:10;;;;;;;;;;;;;;;27.02;34.93;98799.91;4209704;28;20342;-71
2022/06/18 08:05:12;;;;;;;;;;;;;;;27.08;34.93;98802.91;4214559;28;20339;-71
2022/06/18 08:07:12;;;;;;;;;;;;;;;27.14;35.28;98795.28;4214083;28;19924;-71
2022/06/18 08:09:12;;;;;;;;;;;;;;;27.19;35.13;98799.53;4215318;28;20365;-71
2022/06/18 08:11:14;;;;;;;;;;;;;;;27.23;35.26;98800.13;4214372;28;20313;-71
2022/06/18 08:13:14;;;;;;;;;;;;;;;27.31;34.96;98795.66;4214707;28;20352;-71
2022/06/18 08:15:14;;;;;;;;;;;;;;;27.35;34.76;98794.19;4214575;28;19920;-71
2022/06/18 08:17:15;;;;;;;;;;;;;;;27.38;34.20;98790.38;4215264;28;19922;-71
2022/06/18 08:19:15;;;;;;;;;;;;;;;27.40;34.16;98795.59;4213493;28;19958;-71
2022/06/18 08:21:15;;;;;;;;;;;;;;;27.44;35.02;98791.28;4219427;28;19923;-71
2022/06/18 08:23:15;;;;;;;;;;;;;;;27.50;34.63;98788.56;4210802;28;20514;-71
2022/06/18 08:25:17;;;;;;;;;;;;;;;27.56;34.69;98785.84;4212586;28;20348;-71
2022/06/18 08:27:19;;;;;;;;;;;;;;;27.62;34.31;98781.03;4212118;28;20259;-71
2022/06/18 08:29:23;;;;;;;;;;;;;;;27.66;34.08;98784.47;4212744;28;20365;-71
2022/06/18 08:31:23;;;;;;;;;;;;;;;27.72;33.97;98788.22;4207823;28;20349;-71
2022/06/18 08:33:23;;;;;;;;;;;;;;;27.84;34.22;98792.09;4214326;28;19919;-71
2022/06/18 08:35:24;;;;;;;;;;;;;;;27.97;34.51;98787.69;4210500;28;20007;-71
2022/06/18 08:37:24;;;;;;;;;;;;;;;28.01;34.21;98778.94;4218449;27;19994;-71
2022/06/18 08:39:25;;;;;;;;;;;;;;;28.08;34.08;98784.25;4213007;28;19916;-71
2022/06/18 08:41:31;;;;;;;;;;;;;;;28.09;34.15;98788.66;4211726;28;19916;-71
2022/06/18 08:43:49;;;;;;;;;;;;;;;28.20;34.11;98785.22;4211638;28;20438;-71
2022/06/18 08:45:49;;;;;;;;;;;;;;;28.21;34.03;98784.72;4209562;28;20463;-71
2022/06/18 08:47:52;;;;;;;;;;;;;;;28.28;34.82;98775.81;4213621;28;19955;-71
2022/06/18 08:50:11;;;;;;;;;;;;;;;28.24;34.32;98768.75;4215020;28;19923;-71
2022/06/18 08:52:11;;;;;;;;;;;;;;;28.31;34.74;98771.25;4208639;28;19920;-71
2022/06/18 08:54:38;;;;;;;;;;;;;;;28.41;34.34;98777.59;4208524;28;19926;-71
2022/06/18 08:56:43;;;;;;;;;;;;;;;28.60;33.55;98766.75;4209149;28;19920;-71
2022/06/18 08:58:43;;;;;;;;;;;;;;;28.72;33.30;98765.66;4212189;28;20028;-72
2022/06/18 09:00:51;;;;;;;;;;;;;;;28.79;31.96;98762.38;4214007;28;19966;-72
2022/06/18 09:02:57;;;;;;;;;;;;;;;28.95;32.43;98767.56;4213484;28;19916;-71
2022/06/18 09:05:12;;;;;;;;;;;;;;;29.03;32.30;98773.63;4208033;28;19924;-71
2022/06/18 09:07:21;;;;;;;;;;;;;;;28.97;30.91;98772.78;4211694;28;19928;-71
2022/06/18 09:09:27;;;;;;;;;;;;;;;29.13;31.81;98768.56;4211075;28;19920;-71
2022/06/18 09:11:46;;;;;;;;;;;;;;;29.19;31.26;98769.44;4215196;28;19915;-71
2022/06/18 09:14:07;;;;;;;;;;;;;;;29.25;30.77;98776.00;4211423;28;20025;-71
2022/06/18 09:16:08;;;;;;;;;;;;;;;29.31;29.96;98769.09;4210724;28;20002;-71
2022/06/18 09:18:09;;;;;;;;;;;;;;;29.33;30.71;98768.59;4205721;28;19916;-71
2022/06/18 09:20:11;;;;;;;;;;;;;;;29.40;30.88;98762.47;4211728;28;19916;-71
2022/06/18 09:22:15;;;;;;;;;;;;;;;29.57;30.68;98769.16;4213768;28;20355;-72
2022/06/18 09:24:19;;;;;;;;;;;;;;;29.61;29.86;98768.94;4212557;28;19920;-72
2022/06/18 09:26:22;;;;;;;;;;;;;;;29.49;29.99;98759.47;4209685;28;19922;-71
2022/06/18 09:28:42;;;;;;;;;;;;;;;29.54;30.17;98761.63;4204985;28;19971;-71
2022/06/18 09:30:45;;;;;;;;;;;;;;;29.61;30.94;98749.75;4210378;28;19923;-72
2022/06/18 09:32:52;;;;;;;;;;;;;;;29.73;30.76;98769.84;4211816;28;19999;-72
2022/06/18 09:35:01;;;;;;;;;;;;;;;29.65;29.45;98753.19;4210525;28;20472;-72
2022/06/18 09:37:15;;;;;;;;;;;;;;;29.79;30.47;98756.41;4210933;28;19919;-72
2022/06/18 09:39:18;;;;;;;;;;;;;;;29.94;29.97;98754.25;4211855;28;20014;-72
2022/06/18 09:41:23;;;;;;;;;;;;;;;30.01;29.90;98750.16;4215108;28;20314;-72
2022/06/18 09:43:33;;;;;;;;;;;;;;;30.02;29.77;98754.56;4217027;28;19959;-72
2022/06/18 09:45:38;;;;;;;;;;;;;;;30.04;30.85;98749.16;4211003;28;20301;-72
2022/06/18 09:47:40;;;;;;;;;;;;;;;30.08;30.13;98752.59;4206818;28;20356;-72
2022/06/18 09:49:44;;;;;;;;;;;;;;;30.16;29.34;98751.63;4213657;28;20006;-72
2022/06/18 09:52:11;;;;;;;;;;;;;;;30.15;30.45;98746.44;4211961;28;19919;-72
2022/06/18 09:54:12;;;;;;;;;;;;;;;30.28;30.19;98746.78;4211138;28;19959;-72
2022/06/18 09:56:18;;;;;;;;;;;;;;;30.31;30.83;98742.16;4211323;28;19916;-72
2022/06/18 09:58:25;;;;;;;;;;;;;;;30.27;30.82;98738.75;4210714;28;19916;-72
2022/06/18 10:00:28;;;;;;;;;;;;;;;30.29;30.46;98739.03;4214973;28;20308;-72
2022/06/18 10:02:31;;;;;;;;;;;;;;;30.33;30.09;98731.00;4211862;28;19912;-72
2022/06/18 10:06:57;;;;;;;;;;;;;;;30.47;30.57;98735.81;4213174;28;19931;-72
2022/06/18 10:08:59;;;;;;;;;;;;;;;30.48;29.67;98732.44;4209888;28;19959;-72
2022/06/18 10:11:07;;;;;;;;;;;;;;;30.44;31.01;98731.88;4212618;28;19916;-72
2022/06/18 10:13:12;;;;;;;;;;;;;;;30.43;31.04;98735.22;4210725;28;20303;-72
2022/06/18 10:15:14;;;;;;;;;;;;;;;30.51;29.58;98733.47;4214354;28;19945;-72
2022/06/18 10:17:26;;;;;;;;;;;;;;;30.57;28.52;98733.53;4210533;28;20007;-72
2022/06/18 10:19:29;;;;;;;;;;;;;;;30.42;28.13;98713.69;4209913;28;19920;-72
2022/06/18 10:21:44;;;;;;;;;;;;;;;30.49;30.09;98718.94;4210921;28;20271;-72
2022/06/18 10:23:53;;;;;;;;;;;;;;;30.59;30.81;98725.22;4204315;28;19916;-72
2022/06/18 10:25:53;;;;;;;;;;;;;;;30.65;30.29;98721.16;4212239;28;20279;-72
2022/06/18 10:28:06;;;;;;;;;;;;;;;30.59;30.98;98720.28;4206586;28;19916;-72
2022/06/18 10:30:21;;;;;;;;;;;;;;;30.72;31.70;98732.09;4207081;28;19931;-72
2022/06/18 10:32:30;;;;;;;;;;;;;;;30.87;28.21;98723.38;4207918;28;20019;-72
2022/06/18 10:34:49;;;;;;;;;;;;;;;31.02;29.95;98721.06;4218244;28;19915;-72
2022/06/18 10:37:01;;;;;;;;;;;;;;;31.18;28.64;98719.59;4214427;28;19920;-72
2022/06/18 10:39:17;;;;;;;;;;;;;;;31.25;29.56;98716.28;4215255;28;20063;-72
2022/06/18 10:41:17;;;;;;;;;;;;;;;31.22;28.02;98716.53;4214138;28;19920;-72
2022/06/18 10:43:32;;;;;;;;;;;;;;;31.33;28.62;98715.78;4213412;28;19931;-72
2022/06/18 10:45:39;;;;;;;;;;;;;;;31.41;29.81;98709.06;4214224;28;19916;-72
2022/06/18 10:47:42;;;;;;;;;;;;;;;31.53;29.37;98719.25;4215860;28;20341;-72
2022/06/18 10:49:42;;;;;;;;;;;;;;;31.61;28.43;98713.78;4215089;28;19920;-72
2022/06/18 10:51:44;;;;;;;;;;;;;;;31.73;28.59;98706.78;4216157;28;19916;-72